createdAt,value
2022-10-28T06:13:47.462Z,57.15
2022-10-28T06:16:15.513Z,57.68
2022-10-28T06:18:43.695Z,57.38
2022-10-28T06:21:11.711Z,57.47
2022-10-28T06:23:40.430Z,57.32
2022-10-28T06:26:09.308Z,57.57
2022-10-28T06:28:39.926Z,57.40
2022-10-28T06:31:11.626Z,57.55
2022-10-28T06:34:07.105Z,57.64
2022-10-28T06:36:35.072Z,57.41
2022-10-28T06:42:11.663Z,57.78
2022-10-28T06:44:39.689Z,57.91
2022-10-28T06:47:10.784Z,57.69
2022-10-28T06:49:38.741Z,57.75
2022-10-28T06:52:06.636Z,57.58
2022-10-28T06:54:35.378Z,58.16
2022-10-28T06:57:03.353Z,57.58
2022-10-28T06:59:31.470Z,57.86
2022-10-28T07:01:59.469Z,57.67
2022-10-28T07:04:29.147Z,57.85
2022-10-28T07:06:57.499Z,57.87
2022-10-28T07:09:25.563Z,57.89
2022-10-28T07:11:55.106Z,57.56
2022-10-28T07:14:23.785Z,57.95
2022-10-28T07:16:51.735Z,57.65
2022-10-28T07:19:22.573Z,57.94
2022-10-28T07:21:52.105Z,58.08
2022-10-28T07:24:20.853Z,57.82
2022-10-28T07:26:51.966Z,58.05
2022-10-28T07:29:22.737Z,57.89
2022-10-28T07:31:50.861Z,57.80
2022-10-28T07:34:25.966Z,57.90
2022-10-28T07:36:57.539Z,58.08
2022-10-28T07:39:26.175Z,58.02
2022-10-28T07:41:54.163Z,58.13
2022-10-28T07:44:22.105Z,57.69
2022-10-28T07:46:54.246Z,57.45
2022-10-28T07:49:25.798Z,57.57
2022-10-28T07:51:54.765Z,57.39
2022-10-28T07:54:24.928Z,57.34
2022-10-28T07:56:54.850Z,57.26
2022-10-28T07:59:26.557Z,57.06
2022-10-28T08:01:55.479Z,56.73
2022-10-28T08:04:30.938Z,57.28
2022-10-28T08:49:33.515Z,55.97
2022-10-28T08:52:07.528Z,56.01
2022-10-28T08:54:41.382Z,56.23
2022-10-28T08:57:18.914Z,56.04
2022-10-28T08:59:47.694Z,55.99
2022-10-28T09:02:22.537Z,56.09
2022-10-28T09:04:57.648Z,56.12
2022-10-28T09:07:26.649Z,56.21
2022-10-28T09:09:55.131Z,55.83
2022-10-28T09:12:37.163Z,56.05
2022-10-28T09:15:19.348Z,55.76
2022-10-28T09:17:54.799Z,55.03
2022-10-28T09:20:32.999Z,55.58
2022-10-28T09:23:09.709Z,55.28
2022-10-28T09:25:48.951Z,55.40
2022-10-28T09:30:58.394Z,55.44
2022-10-28T09:33:59.495Z,55.21
2022-10-28T09:36:35.221Z,55.00
2022-10-28T09:39:04.808Z,54.45
2022-10-28T09:41:35.301Z,54.49
2022-10-28T09:44:13.500Z,54.36
2022-10-28T09:46:42.015Z,54.18
2022-10-28T09:49:18.103Z,54.61
2022-10-28T09:51:57.204Z,54.10
2022-10-28T09:54:33.356Z,54.11
2022-10-28T09:57:02.073Z,53.61
2022-10-28T09:59:29.984Z,53.45
2022-10-28T10:02:00.745Z,52.50
2022-10-28T10:04:31.687Z,52.56
2022-10-28T10:07:07.287Z,52.33
2022-10-28T10:09:39.177Z,52.42
2022-10-28T10:12:10.244Z,51.78
2022-10-28T10:14:44.185Z,52.20
2022-10-28T10:17:17.946Z,51.46
2022-10-28T10:20:00.893Z,51.43
2022-10-28T10:22:35.641Z,51.57
2022-10-28T10:25:04.223Z,51.53
2022-10-28T10:27:36.353Z,51.06
2022-10-28T10:30:23.688Z,50.63
2022-10-28T10:32:54.244Z,49.76
2022-10-28T10:35:26.549Z,49.01
2022-10-28T10:37:59.263Z,49.59
2022-10-28T10:40:32.554Z,49.32
2022-10-28T10:43:26.581Z,48.93
2022-10-28T10:46:06.084Z,49.08
2022-10-28T10:48:37.442Z,49.31
2022-10-28T10:51:11.344Z,49.75
2022-10-28T10:53:41.653Z,48.51
2022-10-28T10:56:14.279Z,49.17
2022-10-28T10:58:52.225Z,49.50
2022-10-28T11:01:27.238Z,49.31
2022-10-28T11:04:03.220Z,48.88
2022-10-28T11:06:36.910Z,48.71
2022-10-28T11:09:22.419Z,49.17
2022-10-28T11:11:53.946Z,48.90
2022-10-28T11:14:26.944Z,48.63
2022-10-28T11:16:59.449Z,48.35
2022-10-28T11:19:31.300Z,48.10
2022-10-28T11:22:22.925Z,48.85
2022-10-28T11:25:12.557Z,48.65
2022-10-28T11:27:56.326Z,48.67
2022-10-28T11:30:39.045Z,48.56
2022-10-28T11:33:29.486Z,47.90
2022-10-28T11:36:09.438Z,48.03
2022-10-28T11:38:51.650Z,48.24
2022-10-28T11:41:37.042Z,48.55
2022-10-28T11:44:28.192Z,48.45
2022-10-28T11:47:08.759Z,48.55
2022-10-28T11:50:03.806Z,48.96
2022-10-28T11:52:45.645Z,48.61
2022-10-28T11:55:28.320Z,48.67
2022-10-28T11:58:10.983Z,48.29
2022-10-28T12:01:05.430Z,48.17
2022-10-28T12:04:07.296Z,47.80
2022-10-28T12:06:52.694Z,47.34
2022-10-28T12:09:30.521Z,47.93
2022-10-28T12:12:16.897Z,48.06
2022-10-28T12:14:59.124Z,47.75
2022-10-28T12:17:35.277Z,48.52
2022-10-28T12:20:13.281Z,48.13
2022-10-28T12:22:53.148Z,48.65
2022-10-28T12:25:26.785Z,48.59
2022-10-28T12:28:03.634Z,48.74
2022-10-28T12:30:40.097Z,48.55
2022-10-28T12:33:16.182Z,48.63
2022-10-28T12:35:53.184Z,49.45
2022-10-28T12:38:29.340Z,49.31
2022-10-28T12:41:05.764Z,49.56
2022-10-28T12:43:41.556Z,49.18
2022-10-28T12:46:24.731Z,49.44
2022-10-28T12:49:08.782Z,49.33
2022-10-28T12:51:41.187Z,49.70
2022-10-28T12:54:29.131Z,49.62
2022-10-28T12:57:06.594Z,49.13
2022-10-28T12:59:45.544Z,49.58
2022-10-28T13:02:23.765Z,49.65
2022-10-28T13:04:57.016Z,49.70
2022-10-28T13:08:04.117Z,49.66
2022-10-28T13:10:45.926Z,49.93
2022-10-28T13:13:38.762Z,49.73
2022-10-28T13:16:37.575Z,49.24
2022-10-28T13:19:48.098Z,49.67
2022-10-28T13:22:57.602Z,49.36
2022-10-28T13:25:54.615Z,48.84
2022-10-28T13:28:25.567Z,49.49
2022-10-28T13:30:56.061Z,49.73
2022-10-28T13:34:27.509Z,49.42
2022-10-28T13:37:03.553Z,49.44
2022-10-28T13:39:45.781Z,49.84
2022-10-28T13:42:49.809Z,49.78
2022-10-28T13:45:51.630Z,49.89
2022-10-28T13:48:50.980Z,49.63
2022-10-28T13:51:49.164Z,49.28
2022-10-28T13:54:34.220Z,49.62
2022-10-28T13:57:14.063Z,49.70
2022-10-28T13:59:55.809Z,49.46
2022-10-28T14:02:39.414Z,49.37
2022-10-28T14:05:12.325Z,49.50
2022-10-28T14:08:03.279Z,49.98
2022-10-28T14:11:06.481Z,49.69
2022-10-28T14:14:06.235Z,49.48
2022-10-28T14:16:50.100Z,49.17
2022-10-28T14:19:41.815Z,49.60
2022-10-28T14:22:13.256Z,49.37
2022-10-28T14:27:43.490Z,49.56
2022-10-28T14:30:29.971Z,49.26
2022-10-28T14:33:19.278Z,49.43
2022-10-28T14:35:53.130Z,50.13
2022-10-28T14:38:59.613Z,50.01
2022-10-28T14:41:57.090Z,50.12
2022-10-28T14:44:43.192Z,50.49
2022-10-28T14:50:03.063Z,50.71
2022-10-28T14:52:34.914Z,50.45
2022-10-28T14:55:42.516Z,50.48
2022-10-28T14:58:22.213Z,50.68
2022-10-28T15:01:08.326Z,50.74
2022-10-28T15:03:42.234Z,50.79
2022-10-28T15:06:41.375Z,50.81
2022-10-28T15:09:21.995Z,50.96
2022-10-28T15:11:57.797Z,51.01
2022-10-28T15:14:43.943Z,50.83
2022-10-28T15:17:16.467Z,50.53
2022-10-28T15:19:55.430Z,51.01
2022-10-28T15:22:28.954Z,50.79
2022-10-28T15:25:06.998Z,51.22
2022-10-28T15:27:51.770Z,51.54
2022-10-28T15:30:24.554Z,51.61
2022-10-28T15:32:56.018Z,52.04
2022-10-28T15:40:53.996Z,51.81
2022-10-28T15:46:12.244Z,52.28
2022-10-28T15:48:40.904Z,52.01
2022-10-28T15:53:54.001Z,52.52
2022-10-28T15:56:40.219Z,52.56
2022-10-28T15:59:20.189Z,52.80
2022-10-28T16:01:50.842Z,52.63
2022-10-28T16:04:46.951Z,52.71
2022-10-28T16:15:23.419Z,52.86
2022-10-28T16:17:52.900Z,53.41
2022-10-28T16:23:04.850Z,53.41
2022-10-28T16:25:32.855Z,53.49
